Date,TemperatureHighF,TemperatureAvgF,TemperatureLowF,DewpointHighF,DewpointAvgF,DewpointLowF,HumidityHigh,HumidityAvg,HumidityLow,PressureMaxIn,PressureMinIn,WindSpeedMaxMPH,WindSpeedAvgMPH,GustSpeedMaxMPH,PrecipitationSumIn
2013-2-1,33,16,5,31,1,-100,96,77,82,30.44,30.36,11,-127,13,0.00
2013-2-2,36,28,24,30,15,-100,93,77,76,30.46,30.27,24,-91,31,0.01
2013-2-3,30,18,10,23,6,-100,93,81,75,30.26,30.08,8,-91,10,0.00
2013-2-4,41,26,11,33,14,-100,94,78,72,30.21,29.94,11,-85,15,0.00
2013-2-5,33,26,18,29,20,-100,93,84,80,30.20,29.91,12,-32,15,0.00
2013-2-6,41,26,16,32,16,-100,96,81,68,30.26,29.91,9,-61,14,0.00
2013-2-7,28,20,15,26,12,-100,95,87,92,30.35,30.22,13,-73,20,0.00
2013-2-8,31,19,9,26,12,-100,94,86,83,30.27,30.21,7,-41,10,0.00
2013-2-9,32,17,5,27,6,-100,94,82,80,30.25,30.12,8,-84,10,0.00
2013-2-10,30,22,19,27,13,-100,93,81,77,30.42,30.17,22,-45,25,0.00
2013-2-11,31,19,7,21,10,-100,90,78,63,30.43,30.17,6,-42,9,0.00
2013-2-12,38,25,13,29,15,-100,91,79,67,30.27,30.00,7,-51,11,0.00
2013-2-13,41,31,22,33,19,-100,93,75,70,30.17,29.91,21,-65,34,0.00
2013-2-14,31,22,11,27,10,-100,93,77,72,30.62,30.17,22,-68,33,0.00
2013-2-15,34,23,12,27,12,-100,91,78,67,30.67,30.26,6,-57,10,0.00
2013-2-16,46,33,25,34,25,-100,92,80,62,30.28,29.85,8,-29,14,0.00
2013-2-17,36,29,22,33,20,-100,94,82,80,30.21,29.74,20,-47,29,0.00
2013-2-18,22,16,5,18,3,-100,87,73,69,30.59,30.22,18,-73,21,0.00
2013-2-19,11,5,-3,4,-4,-100,86,75,72,30.60,30.38,24,-29,33,0.00
2013-2-20,18,11,5,10,2,-100,84,74,67,30.39,30.32,19,-29,24,0.00
2013-2-21,24,14,4,16,7,-100,90,79,69,30.41,30.25,11,-18,15,0.00
2013-2-22,40,24,10,28,17,-100,91,79,57,30.24,29.88,7,-19,11,0.00
2013-2-23,42,31,24,32,19,-100,88,74,64,30.11,29.80,8,-44,16,0.00
2013-2-24,44,30,21,28,19,-100,90,72,48,30.34,30.12,10,-43,16,0.00
2013-2-25,49,34,20,31,24,-100,89,71,39,30.17,29.97,8,-9,10,0.00
2013-2-26,34,30,27,29,24,-100,91,83,77,30.45,30.03,18,-14,22,0.00
2013-2-27,32,27,23,25,20,-100,91,82,76,30.56,30.46,10,-27,14,0.00
2013-2-28,40,28,21,29,24,20,94,85,64,30.52,30.42,8,3,12,0.00